Weather reports worldwide

Advertisment
Pian Rosa, Italy (16052): temperature & dewpoint: 13.07.2018 13:00:00 - 19.07.2018 13:00:00 (CEST)Pian Rosa, Italy (16052): wind speed: 13.07.2018 13:00:00 - 19.07.2018 13:00:00 (CEST)Pian Rosa, Italy (16052): wind direction: 13.07.2018 13:00:00 - 19.07.2018 13:00:00 (CEST)Pian Rosa, Italy (16052): visibility: 13.07.2018 13:00:00 - 19.07.2018 13:00:00 (CEST)Pian Rosa, Italy (16052): sunshine duration: 13.07.2018 13:00:00 - 19.07.2018 13:00:00 (CEST)
Date & Time tt [°C] td [°C] ff [km/h] ff [kn] dd vv [km] sd [min]
19.07.2018 13:00:00 7,4 -0,3 4 2 - 60 36
19.07.2018 12:00:00 7,4 -1,5 4 2 - 70 48
19.07.2018 11:00:00 7,4 -1,5 4 2 - 70 60
19.07.2018 10:00:00 6,6 -2,3 4 2 - 70 60
19.07.2018 09:00:00 5,8 -1,8 4 2 - 70 60
19.07.2018 08:00:00 3,8 -3,3 13 7 SE 70 0
19.07.2018 07:00:00 3,0 -2,3 4 2 - 70 -
19.07.2018 06:00:00 3,0 -1,9 24 13 SE 10 -
19.07.2018 05:00:00 2,0 2,0 16 9 SSW 0,1 -
19.07.2018 04:00:00 2,8 2,8 8 4 SSW 0,1 -
19.07.2018 03:00:00 4,0 4,0 9 5 WSW 0,8 -
19.07.2018 02:00:00 4,0 0,9 8 4 S 10 -
19.07.2018 01:00:00 4,2 0,2 4 2 - 10 -
19.07.2018 00:00:00 4,6 1,4 4 2 - 10 -
18.07.2018 23:00:00 4,8 0,0 5 3 E 10 -
18.07.2018 22:00:00 5,8 0,8 0 0 N 10 -
18.07.2018 21:00:00 7,0 3,1 0 0 N 30 18
18.07.2018 20:00:00 7,4 1,5 5 3 - 60 60
18.07.2018 19:00:00 7,8 0,8 4 2 - 80 48
18.07.2018 18:00:00 7,4 -0,5 9 5 WSW 80 60
18.07.2018 17:00:00 7,2 -2,5 5 3 - 80 48
18.07.2018 16:00:00 7,0 -3,3 4 2 - 80 60
18.07.2018 15:00:00 7,4 -2,1 4 2 - 80 48
18.07.2018 14:00:00 7,0 -3,3 4 2 - 80 60
18.07.2018 13:00:00 7,2 -5,5 5 3 SSW 80 60
18.07.2018 12:00:00 6,2 -23,2 0 0 N 80 60
18.07.2018 11:00:00 6,0 -23,4 5 3 N 80 60
18.07.2018 10:00:00 3,4 -25,4 13 7 ENE 80 60
18.07.2018 09:00:00 3,2 -25,5 15 8 ENE 80 60
18.07.2018 08:00:00 3,0 -25,7 15 8 ENE 80 18
18.07.2018 07:00:00 1,0 -20,1 4 2 - 80 -
18.07.2018 06:00:00 0,4 -13,3 4 2 - 20 -
18.07.2018 05:00:00 0,4 -6,5 4 2 - 10 -
18.07.2018 04:00:00 0,6 -7,9 4 2 - 10 -
18.07.2018 03:00:00 0,4 -5,8 9 5 SSW 10 -
18.07.2018 02:00:00 0,4 -5,4 4 2 - 10 -
18.07.2018 01:00:00 0,8 -5,9 4 2 - 10 -
18.07.2018 00:00:00 0,8 -3,1 9 5 ENE 10 -
17.07.2018 23:00:00 1,0 -2,4 9 5 ENE 10 -
17.07.2018 22:00:00 1,0 -2,1 13 7 NE 20 -
17.07.2018 21:00:00 1,0 -1,1 18 10 ENE 30 42
17.07.2018 20:00:00 1,4 -1,7 35 19 N 30 60
17.07.2018 19:00:00 1,6 -2,3 28 15 N 30 0
17.07.2018 18:00:00 2,0 -3,9 16 9 N 30 36
17.07.2018 17:00:00 1,8 -5,1 26 14 N 30 48
17.07.2018 16:00:00 1,4 -3,5 29 16 N 30 60
17.07.2018 15:00:00 1,2 -2,5 21 11 NNE 30 30
17.07.2018 14:00:00 1,0 -3,5 34 18 NNE 30 60
17.07.2018 13:00:00 0,8 -3,9 21 11 NE 50 60
17.07.2018 12:00:00 0,0 -2,5 22 12 NE 50 60
17.07.2018 11:00:00 -0,6 -2,3 26 14 ENE 50 60
17.07.2018 10:00:00 -0,4 -2,8 22 12 ENE 50 42
17.07.2018 09:00:00 -0,6 -2,3 46 25 NE 10 48
17.07.2018 08:00:00 -0,8 -3,2 61 33 NE 30 18
17.07.2018 07:00:00 -1,2 -2,6 52 28 NE 30 0
17.07.2018 06:00:00 1,2 0,5 52 28 NNE 20 -
17.07.2018 05:00:00 -1,0 -4,0 46 25 NE 10 -
17.07.2018 04:00:00 -0,4 -2,8 59 32 NE 10 -
17.07.2018 03:00:00 -0,8 -2,8 50 27 NE 10 -
17.07.2018 02:00:00 -0,4 -3,9 63 34 NNE 10 -
17.07.2018 01:00:00 0,0 -3,9 57 31 NE 10 -
17.07.2018 00:00:00 0,6 -3,3 42 23 N 10 -
16.07.2018 23:00:00 0,8 -3,1 34 18 N 10 -
16.07.2018 22:00:00 1,0 -2,9 29 16 NNE 10 -
16.07.2018 21:00:00 1,0 -2,1 22 12 N 10 0
16.07.2018 20:00:00 0,8 0,8 22 12 NE 0,3 0
16.07.2018 19:00:00 3,2 0,9 18 10 NNW 0,3 0
16.07.2018 18:00:00 3,4 -2,8 22 12 NE 10 18
16.07.2018 17:00:00 7,2 0,0 11 6 WSW 10 0
16.07.2018 16:00:00 6,0 -3,1 9 5 W 10 0
16.07.2018 15:00:00 6,2 1,3 5 3 SSW 5 0
16.07.2018 14:00:00 5,8 -0,5 15 8 WSW 5 6
16.07.2018 13:00:00 6,8 -0,9 13 7 S 10 54
16.07.2018 12:00:00 7,0 -3,0 11 6 S 10 60
16.07.2018 11:00:00 6,0 -7,2 11 6 SSW 20 60
16.07.2018 10:00:00 5,0 -12,4 5 3 S 80 60
16.07.2018 09:00:00 4,0 -12,4 5 3 ESE 80 60
16.07.2018 08:00:00 3,0 -11,7 5 3 ENE 80 18
16.07.2018 07:00:00 1,6 -9,6 8 4 N 80 -
16.07.2018 06:00:00 1,8 -10,4 8 4 SE 80 -
16.07.2018 05:00:00 1,8 -9,7 11 6 NNE 20 -
16.07.2018 04:00:00 2,0 -6,1 9 5 NNE 10 -
16.07.2018 03:00:00 2,0 -3,3 9 5 S 10 -
16.07.2018 02:00:00 2,2 -2,7 9 5 S 10 -
16.07.2018 01:00:00 2,0 -2,5 5 3 N 10 -
16.07.2018 00:00:00 2,6 -1,7 13 7 N 10 -
15.07.2018 23:00:00 2,4 -0,7 11 6 NNW 10 -
15.07.2018 22:00:00 2,6 -1,7 24 13 SSW 10 -
15.07.2018 21:00:00 3,2 -1,3 29 16 SSW 10 -
15.07.2018 20:00:00 4,2 -2,9 34 18 SSW 10 0
15.07.2018 19:00:00 5,4 -1,7 22 12 SSW 10 0
15.07.2018 18:00:00 4,4 1,1 8 4 WSW 20 0
15.07.2018 17:00:00 7,0 -1,4 13 7 WSW 0,1 24
15.07.2018 16:00:00 7,2 0,0 9 5 SSW 10 54
15.07.2018 15:00:00 6,4 -4,1 21 11 WSW 10 36
15.07.2018 14:00:00 5,6 -4,0 8 4 ESE 10 6
15.07.2018 13:00:00 5,4 -4,5 0 0 N 10 30
15.07.2018 12:00:00 4,4 -30,0 5 3 E 10 6
15.07.2018 11:00:00 4,4 -8,0 5 3 WSW 10 24
15.07.2018 10:00:00 3,8 -11,0 8 4 SW 30 60
15.07.2018 09:00:00 3,2 -11,2 11 6 WNW 50 60
15.07.2018 08:00:00 2,8 -9,5 0 0 N 50 18
15.07.2018 07:00:00 2,0 -6,0 - - - 10 -
15.07.2018 06:00:00 2,0 -4,7 13 7 WNW 30 -
15.07.2018 05:00:00 2,2 -4,3 16 9 NW 10 -
15.07.2018 04:00:00 2,2 -4,3 15 8 NNW 10 -
15.07.2018 03:00:00 2,2 -4,3 16 9 WNW 10 -
15.07.2018 02:00:00 2,0 -3,9 11 6 N 10 -
15.07.2018 01:00:00 2,0 -2,9 13 7 W 10 -
15.07.2018 00:00:00 0,8 0,8 13 7 WSW 10 -
14.07.2018 23:00:00 1,0 1,0 13 7 NW 0,3 -
14.07.2018 22:00:00 2,0 2,0 21 11 ENE 0,3 -
14.07.2018 21:00:00 3,0 1,5 8 4 NE 0,3 0
14.07.2018 20:00:00 6,2 1,5 5 3 SSE 0,3 0
14.07.2018 19:00:00 6,2 3,2 9 5 SW 0,3 18
14.07.2018 18:00:00 7,0 1,1 18 10 SW 4,0 48
14.07.2018 17:00:00 6,2 2,5 13 7 S 5 0
14.07.2018 16:00:00 5,3 0,6 15 8 WNW 0,3 0
14.07.2018 15:00:00 8,6 -2,1 9 5 WSW 20 54
14.07.2018 14:00:00 9,4 -1,9 15 8 SSW 20 54
14.07.2018 13:00:00 8,6 -0,7 13 7 SSW 20 60
14.07.2018 12:00:00 8,2 -0,3 13 7 SSW 20 60
14.07.2018 11:00:00 7,4 -1,5 8 4 S 20 60
14.07.2018 10:00:00 6,4 0,3 5 3 SW 30 60
14.07.2018 09:00:00 5,6 -1,1 9 5 SSW 30 54
14.07.2018 08:00:00 3,8 0,7 8 4 ESE 30 0
14.07.2018 07:00:00 2,4 0,9 9 5 SSW 20 -
14.07.2018 06:00:00 2,6 -0,7 5 3 SW 30 -
14.07.2018 05:00:00 3,0 -0,5 5 3 SW 10 -
14.07.2018 04:00:00 2,8 -0,3 13 7 SSW 10 -
14.07.2018 03:00:00 3,0 -0,5 5 3 S 10 -
14.07.2018 02:00:00 3,2 -0,3 8 4 SW 10 -
14.07.2018 01:00:00 3,8 -1,2 5 3 S 10 -
14.07.2018 00:00:00 4,0 -1,0 8 4 SSW 10 -
13.07.2018 23:00:00 3,6 -1,7 9 5 SW 10 -
13.07.2018 22:00:00 4,2 -1,2 9 5 S 20 -
13.07.2018 21:00:00 4,6 -0,6 13 7 SSW 30 0
13.07.2018 20:00:00 5,0 0,2 21 11 SSW 30 12
13.07.2018 19:00:00 5,4 0,6 21 11 S 30 6
13.07.2018 18:00:00 6,2 0,1 15 8 S 30 6
13.07.2018 17:00:00 7,2 -1,2 9 5 S 30 36
13.07.2018 16:00:00 7,6 -2,2 11 6 SW 50 60
13.07.2018 15:00:00 7,8 -30,0 11 6 S 80 60
13.07.2018 14:00:00 7,4 -0,3 5 3 SSW 75 60
13.07.2018 13:00:00 7,4 -0,5 5 3 SSW 75 60

tt = temperature
td = dewpoint
ff = wind speed
dd = wind direction
vv = visibility
sd = sunshine duration

Next stations